Time;durP1;ratioP1;P1;durP2;ratioP2;P2;SDS_P1;SDS_P2;PMS_P1;PMS_P2;Temp;Humidity;BMP_temperature;BMP_pressure;BME280_temperature;BME280_humidity;BME280_pressure;Samples;Min_cycle;Max_cycle;Signal;HPM_P1;HPM_P2
2021/03/31 00:01:59;;;;;;;43.22;25.27;;;17.50;99.90;;;17.88;43.51;102352.91;5075261;28;20044;-66
2021/03/31 00:04:26;;;;;;;40.22;25.20;;;17.50;99.90;;;17.79;44.46;102346.72;5075080;28;20489;-66
2021/03/31 00:06:55;;;;;;;43.22;26.08;;;17.30;99.90;;;17.58;44.42;102320.19;5073743;28;20060;-66
2021/03/31 00:09:22;;;;;;;44.45;26.65;;;17.20;99.90;;;17.64;44.91;102341.53;5075183;28;20483;-66
2021/03/31 00:11:49;;;;;;;43.80;26.52;;;17.20;99.90;;;17.61;44.58;102330.88;5075044;28;20524;-67
2021/03/31 00:14:17;;;;;;;46.35;25.85;;;17.10;99.90;;;17.64;43.35;102330.84;5074953;28;20036;-66
2021/03/31 00:16:45;;;;;;;46.47;26.77;;;17.10;99.90;;;17.60;43.63;102334.44;5074839;28;20052;-66
2021/03/31 00:19:12;;;;;;;41.53;26.58;;;17.10;99.90;;;17.53;43.97;102335.41;5074767;28;20090;-67
2021/03/31 00:21:40;;;;;;;45.58;27.25;;;17.00;99.90;;;17.51;43.95;102340.78;5075090;28;20118;-66
2021/03/31 00:24:10;;;;;;;51.47;28.77;;;17.00;99.90;;;17.51;43.46;102337.22;5074875;28;20114;-67
2021/03/31 00:26:37;;;;;;;48.22;27.67;;;17.00;99.90;;;17.53;43.02;102332.75;5074774;28;20036;-66
2021/03/31 00:29:04;;;;;;;43.90;27.25;;;17.00;99.90;;;17.44;43.43;102320.28;5074668;28;20132;-67
2021/03/31 00:31:32;;;;;;;45.53;25.33;;;17.00;99.90;;;17.44;43.74;102319.44;5074696;28;20391;-67
2021/03/31 00:34:00;;;;;;;46.28;26.77;;;16.90;99.90;;;17.41;44.02;102322.09;5074754;28;20133;-66
2021/03/31 00:36:28;;;;;;;47.50;25.83;;;16.90;99.90;;;17.39;43.71;102310.53;5074755;28;20048;-66
2021/03/31 00:38:55;;;;;;;46.75;27.92;;;16.80;99.90;;;17.36;44.03;102319.50;5074639;28;20071;-67
2021/03/31 00:41:23;;;;;;;44.30;28.00;;;16.80;99.90;;;17.28;44.61;102307.97;5074455;28;20410;-67
2021/03/31 00:43:51;;;;;;;49.13;27.23;;;16.80;99.90;;;17.21;44.67;102303.56;5074566;28;20051;-66
2021/03/31 00:46:18;;;;;;;40.92;25.67;;;16.70;99.90;;;17.19;44.99;102301.81;5074288;28;20033;-66
2021/03/31 00:48:45;;;;;;;45.13;26.23;;;16.70;99.90;;;17.08;45.01;102300.13;5072349;28;20052;-67
2021/03/31 00:51:13;;;;;;;45.28;27.42;;;16.60;99.90;;;16.97;44.36;102283.28;5089946;28;20048;-66
2021/03/31 00:53:43;;;;;;;52.72;29.63;;;16.60;99.90;;;17.12;43.59;102295.63;5074153;28;20040;-67
2021/03/31 00:56:12;;;;;;;50.25;28.80;;;16.60;99.90;;;17.25;43.61;102297.28;5074577;28;20123;-66
2021/03/31 00:58:41;;;;;;;55.33;29.40;;;16.70;99.90;;;17.19;43.66;102288.44;5074286;28;20115;-66
2021/03/31 01:01:10;;;;;;;51.03;28.40;;;16.70;99.90;;;17.10;43.94;102292.06;5074178;28;20052;-67
2021/03/31 01:03:37;;;;;;;48.40;28.35;;;16.60;99.90;;;17.08;44.02;102284.06;5073958;28;20408;-66
2021/03/31 01:06:06;;;;;;;49.58;28.50;;;16.60;99.90;;;17.02;44.39;102281.44;5073996;28;20086;-66
2021/03/31 01:08:34;;;;;;;48.17;29.40;;;16.60;99.90;;;17.05;44.33;102289.44;5073965;28;20040;-67
2021/03/31 01:11:03;;;;;;;54.50;30.15;;;16.60;99.90;;;17.13;44.34;102286.69;5072600;28;20056;-66
2021/03/31 01:13:54;;;;;;;52.10;28.88;;;16.70;99.90;;;17.13;44.32;102279.56;5073812;28;20123;-66
2021/03/31 01:16:36;;;;;;;47.78;29.33;;;16.70;99.90;;;17.06;44.68;102283.19;5073710;28;20502;-66
2021/03/31 01:19:59;;;;;;;49.00;28.60;;;16.70;99.90;;;17.07;44.45;102278.75;5074065;28;20123;-66
2021/03/31 01:23:37;;;;;;;50.25;29.48;;;16.70;99.90;;;16.99;44.96;102280.59;5073815;28;20046;-66
2021/03/31 01:26:11;;;;;;;51.92;30.05;;;16.60;99.90;;;16.99;44.62;102270.75;4991963;28;20050;-66
2021/03/31 01:29:11;;;;;;;51.50;28.95;;;16.60;99.90;;;16.85;44.39;102266.44;5070488;28;20075;-66
2021/03/31 01:31:50;;;;;;;50.63;28.52;;;16.50;99.90;;;16.90;44.76;102268.16;5033185;28;20041;-66
2021/03/31 01:34:35;;;;;;;60.22;29.30;;;16.50;99.90;;;16.92;44.45;102261.03;5073291;28;20123;-66
2021/03/31 01:37:12;;;;;;;52.63;30.02;;;16.50;99.90;;;16.88;44.29;102256.59;5073495;28;20048;-66
2021/03/31 01:39:42;;;;;;;56.05;31.35;;;16.50;99.90;;;16.90;44.39;102257.47;5073457;28;20410;-67
2021/03/31 01:42:12;;;;;;;51.22;28.98;;;16.50;99.90;;;16.85;43.83;102251.28;5073238;28;20490;-66
2021/03/31 01:44:42;;;;;;;55.13;29.93;;;16.50;99.90;;;16.86;43.82;102255.72;5088716;28;20497;-66
2021/03/31 01:47:12;;;;;;;44.97;27.17;;;16.50;99.90;;;16.87;44.58;102252.16;5073413;28;20055;-67
2021/03/31 01:49:42;;;;;;;55.80;29.30;;;16.50;99.90;;;16.70;44.97;102245.19;5073391;28;20079;-67
2021/03/31 01:52:12;;;;;;;49.78;29.48;;;16.40;99.90;;;16.64;45.27;102242.56;5073192;28;20044;-66
2021/03/31 01:54:44;;;;;;;45.63;28.63;;;16.30;99.90;;;16.39;46.80;102232.91;5072900;28;20395;-66
2021/03/31 01:57:13;;;;;;;47.92;27.58;;;16.20;99.90;;;16.27;48.31;102250.78;5073184;28;20429;-66
2021/03/31 01:59:43;;;;;;;37.00;23.48;;;16.00;99.90;;;16.17;49.84;102235.69;5073198;28;20033;-67
2021/03/31 02:02:13;;;;;;;37.67;24.00;;;15.90;99.90;;;16.08;49.81;102232.19;5073196;28;20090;-66
2021/03/31 02:04:42;;;;;;;48.00;28.08;;;15.70;99.90;;;16.01;48.61;102230.44;5073009;28;20113;-66
2021/03/31 02:07:10;;;;;;;45.60;27.13;;;15.60;99.90;;;15.36;48.39;102110.66;5072940;28;20151;-66
2021/03/31 02:09:45;;;;;;;48.97;29.27;;;15.60;99.90;;;15.97;47.86;102226.00;5071502;28;20072;-66
2021/03/31 02:12:14;;;;;;;55.25;29.42;;;15.60;99.90;;;16.02;47.00;102232.22;5073093;28;20051;-66
2021/03/31 02:14:43;;;;;;;48.83;27.80;;;15.60;99.90;;;15.85;47.11;102192.25;5072677;28;20514;-66
2021/03/31 02:17:15;;;;;;;50.47;28.58;;;15.70;99.90;;;16.03;47.39;102232.19;5072734;28;20043;-66
2021/03/31 02:19:46;;;;;;;53.50;31.60;;;15.70;99.90;;;15.94;46.44;102199.34;5072791;28;20090;-66
2021/03/31 02:22:15;;;;;;;53.78;30.17;;;15.60;99.90;;;16.07;46.56;102220.63;5072608;28;20044;-66
2021/03/31 02:24:44;;;;;;;54.00;31.88;;;15.60;99.90;;;16.04;46.41;102209.06;5073124;28;20417;-66
2021/03/31 02:27:12;;;;;;;54.08;30.50;;;15.60;99.90;;;16.08;46.81;102213.50;5072775;28;20037;-66
2021/03/31 02:29:40;;;;;;;53.13;31.90;;;15.60;99.90;;;15.78;46.69;102162.94;5072379;28;20409;-66
2021/03/31 02:32:10;;;;;;;59.55;32.78;;;15.70;99.90;;;16.01;46.88;102203.72;5072634;28;20072;-66
2021/03/31 02:34:39;;;;;;;54.85;30.15;;;15.60;99.90;;;16.07;46.63;102225.06;5072458;28;20143;-67
2021/03/31 02:37:08;;;;;;;59.20;32.30;;;15.60;99.90;;;16.06;46.42;102217.97;5072447;28;20040;-66
2021/03/31 02:39:38;;;;;;;61.10;31.50;;;15.60;99.90;;;16.12;46.20;102199.25;5072652;28;20041;-66
2021/03/31 02:42:08;;;;;;;60.15;32.35;;;15.70;99.90;;;16.10;46.51;102188.56;5072677;28;20032;-67
2021/03/31 02:44:40;;;;;;;58.40;32.30;;;15.70;99.90;;;16.09;46.71;102193.91;5072586;28;20051;-66
2021/03/31 02:47:12;;;;;;;56.60;30.50;;;15.70;99.90;;;16.17;46.03;102195.66;5072432;28;20033;-67
2021/03/31 02:49:41;;;;;;;51.42;30.38;;;15.70;99.90;;;16.11;46.67;102201.03;5072675;28;20039;-66
2021/03/31 02:52:12;;;;;;;46.10;28.23;;;15.70;99.90;;;15.94;47.64;102189.56;5072902;28;20045;-66
2021/03/31 02:54:42;;;;;;;46.55;28.20;;;15.60;99.90;;;15.79;48.77;102192.31;5072211;28;20412;-66
2021/03/31 02:57:11;;;;;;;40.70;26.92;;;15.40;99.90;;;15.57;50.78;102182.59;5072485;28;20044;-66
2021/03/31 02:59:40;;;;;;;44.65;25.20;;;15.20;99.90;;;15.35;51.25;102184.41;5072123;28;20037;-66
2021/03/31 03:02:09;;;;;;;41.13;24.17;;;15.10;99.90;;;15.18;53.04;102182.69;5072509;28;20052;-66
2021/03/31 03:04:38;;;;;;;34.08;21.73;;;14.80;99.90;;;15.01;54.00;102182.72;5071111;28;20048;-67
2021/03/31 03:07:07;;;;;;;33.15;22.13;;;14.60;99.90;;;15.01;53.75;102180.06;5072249;28;20132;-66
2021/03/31 03:09:36;;;;;;;40.88;25.38;;;14.50;99.90;;;14.94;53.27;102175.59;5072171;28;20071;-67
2021/03/31 03:12:04;;;;;;;37.33;22.70;;;14.50;99.90;;;14.98;53.50;102168.53;5073305;28;20036;-66
2021/03/31 03:14:33;;;;;;;47.97;27.88;;;14.50;99.90;;;14.99;52.34;102167.63;5075878;28;20452;-66
2021/03/31 03:17:01;;;;;;;51.65;28.92;;;14.50;99.90;;;14.94;51.45;102154.28;5076274;28;20102;-66
2021/03/31 03:19:28;;;;;;;45.72;28.42;;;14.50;99.90;;;14.98;51.28;102155.19;5076107;28;20048;-66
2021/03/31 03:21:56;;;;;;;51.20;29.25;;;14.50;99.90;;;15.05;50.62;102164.94;5091581;28;20049;-67
2021/03/31 03:24:25;;;;;;;52.28;30.42;;;14.60;99.90;;;15.14;50.27;102167.59;5091550;28;20036;-66
2021/03/31 03:26:53;;;;;;;53.70;26.83;;;14.60;99.90;;;15.08;50.88;102162.25;5074419;28;20056;-66
2021/03/31 03:29:22;;;;;;;43.67;24.63;;;14.60;99.90;;;15.07;51.46;102165.84;5075736;28;20032;-66
2021/03/31 03:31:50;;;;;;;27.15;17.63;;;14.60;99.90;;;14.82;54.53;102151.66;5076084;28;20517;-66
2021/03/31 03:34:18;;;;;;;27.85;18.50;;;14.50;99.90;;;14.60;56.16;102155.22;5075702;28;20045;-66
2021/03/31 03:36:46;;;;;;;27.25;17.70;;;14.30;99.90;;;14.44;56.35;102159.66;5075693;28;20053;-66
2021/03/31 03:39:14;;;;;;;35.80;23.67;;;14.10;99.90;;;13.72;56.61;102052.25;5075560;28;20028;-66
2021/03/31 03:41:43;;;;;;;45.70;27.13;;;13.90;99.90;;;14.53;54.19;102152.56;5075539;28;20055;-66
2021/03/31 03:44:11;;;;;;;47.22;27.27;;;14.00;99.90;;;14.55;53.26;102154.34;5075628;28;20094;-66
2021/03/31 03:46:40;;;;;;;44.33;25.55;;;14.10;99.90;;;14.62;53.10;102148.13;5075573;28;20055;-66
2021/03/31 03:49:07;;;;;;;46.92;28.42;;;14.20;99.90;;;14.60;52.47;102168.53;5075480;28;20048;-66
2021/03/31 03:51:35;;;;;;;47.92;27.67;;;14.20;99.90;;;14.69;52.18;102138.38;5074070;28;20048;-66
2021/03/31 03:54:09;;;;;;;53.58;29.38;;;14.30;99.90;;;14.76;51.84;102149.00;5075149;28;20106;-69
2021/03/31 03:56:37;;;;;;;48.50;29.33;;;14.30;99.90;;;14.65;52.57;102132.16;5075528;28;20036;-69
2021/03/31 03:59:19;;;;;;;52.03;28.90;;;14.30;99.90;;;14.70;52.76;102142.78;5075319;28;20055;-69
2021/03/31 04:01:48;;;;;;;38.38;23.42;;;14.30;99.90;;;14.60;53.76;102147.25;5075319;28;20063;-69
2021/03/31 04:04:16;;;;;;;39.95;25.48;;;14.20;99.90;;;14.39;54.32;102132.16;5075029;28;20448;-69
2021/03/31 04:06:43;;;;;;;48.88;27.13;;;14.10;99.90;;;14.19;55.42;102144.53;5075260;28;20063;-69
2021/03/31 04:09:11;;;;;;;44.53;27.25;;;13.80;99.90;;;14.09;55.44;102136.53;5075052;28;20040;-69
2021/03/31 04:11:42;;;;;;;46.70;26.50;;;13.70;99.90;;;13.82;56.00;102133.81;5075215;28;20098;-72
2021/03/31 04:14:12;;;;;;;45.60;26.85;;;13.50;99.90;;;13.71;56.12;102127.56;5073820;28;20056;-73
2021/03/31 04:16:43;;;;;;;33.40;21.50;;;13.30;99.90;;;13.49;57.51;102116.84;5073436;28;20060;-70
2021/03/31 04:19:14;;;;;;;19.30;14.07;;;13.20;99.90;;;13.27;60.01;102127.41;5075189;28;20045;-71
2021/03/31 04:21:42;;;;;;;24.25;16.75;;;13.00;99.90;;;13.13;60.61;102119.38;5075140;28;20071;-70
2021/03/31 04:24:12;;;;;;;22.08;13.95;;;12.80;99.90;;;13.23;60.70;102138.91;5073695;28;20041;-71
2021/03/31 04:26:41;;;;;;;27.02;18.23;;;12.70;99.90;;;13.29;59.83;102128.31;5074707;28;20404;-71
2021/03/31 04:29:12;;;;;;;28.20;18.40;;;12.70;99.90;;;13.11;59.38;102097.22;5074661;28;20115;-71
2021/03/31 04:31:42;;;;;;;31.20;18.95;;;12.80;99.90;;;13.35;59.37;102123.03;5074610;28;20063;-71
2021/03/31 04:34:11;;;;;;;30.10;19.45;;;12.80;99.90;;;13.18;60.71;102125.56;5075081;28;20044;-71
2021/03/31 04:36:39;;;;;;;26.50;18.83;;;12.70;99.90;;;13.22;61.04;102118.53;5074617;28;20444;-71
2021/03/31 04:39:07;;;;;;;28.00;17.60;;;12.80;99.90;;;13.10;61.47;102122.03;5074522;28;20044;-71
2021/03/31 04:41:34;;;;;;;31.00;20.42;;;12.60;99.90;;;13.07;61.48;102123.75;5074472;28;20086;-70
2021/03/31 04:44:03;;;;;;;26.50;17.70;;;12.60;99.90;;;13.24;60.77;102120.28;5074384;28;20082;-72
2021/03/31 04:46:31;;;;;;;33.85;21.30;;;12.70;99.90;;;13.35;60.07;102112.38;5074565;28;20090;-70
2021/03/31 04:49:00;;;;;;;33.50;21.48;;;12.90;99.90;;;13.46;59.69;102116.88;5074529;28;20052;-70
2021/03/31 04:51:27;;;;;;;38.88;23.50;;;13.00;99.90;;;13.58;58.56;102121.34;5074285;28;20052;-70
2021/03/31 04:53:55;;;;;;;35.25;21.92;;;13.10;99.90;;;13.59;59.07;102121.34;5074199;28;20049;-71
2021/03/31 04:56:23;;;;;;;40.75;24.60;;;13.10;99.90;;;13.58;58.37;102127.56;5074115;28;20037;-71
2021/03/31 04:58:50;;;;;;;35.58;21.75;;;13.10;99.90;;;13.50;58.78;102118.66;5072808;28;20460;-71
2021/03/31 05:01:18;;;;;;;31.17;20.42;;;13.10;99.90;;;13.35;59.71;102117.69;5074084;28;20048;-71
2021/03/31 05:03:46;;;;;;;38.28;21.17;;;13.00;99.90;;;13.34;59.75;102123.88;5074148;28;20127;-71
2021/03/31 05:06:14;;;;;;;30.92;18.42;;;12.90;99.90;;;13.28;60.33;102115.88;5074059;28;20131;-71
2021/03/31 05:08:41;;;;;;;26.65;18.35;;;12.80;99.90;;;13.19;61.72;102127.38;5073919;28;20074;-71
2021/03/31 05:11:10;;;;;;;29.55;18.80;;;12.80;99.90;;;13.03;62.63;102112.22;5073710;28;20494;-71
2021/03/31 05:13:37;;;;;;;27.58;17.40;;;12.60;99.90;;;13.11;62.49;102114.91;5073989;28;20157;-71
2021/03/31 05:16:06;;;;;;;27.70;16.77;;;12.60;99.90;;;13.13;61.86;102114.06;5073674;28;20114;-71
2021/03/31 05:18:33;;;;;;;44.58;24.88;;;12.60;99.90;;;13.21;60.39;102114.97;5073790;28;20040;-71
2021/03/31 05:21:01;;;;;;;52.45;31.98;;;12.70;99.90;;;13.28;56.40;102110.56;5073992;28;20107;-71
2021/03/31 05:23:29;;;;;;;49.33;29.08;;;12.70;99.90;;;13.39;57.65;102108.88;5073539;28;20049;-71
2021/03/31 05:25:56;;;;;;;71.50;41.72;;;12.80;99.90;;;13.47;55.15;102097.34;5089073;28;20067;-71
2021/03/31 05:28:24;;;;;;;38.20;22.85;;;13.00;99.90;;;13.61;57.56;102088.56;5089187;28;20076;-71
2021/03/31 05:30:51;;;;;;;28.48;18.27;;;13.20;99.90;;;13.76;57.19;102104.53;5073532;28;20083;-71
2021/03/31 05:33:18;;;;;;;49.13;27.50;;;13.30;99.90;;;13.86;57.02;102107.22;5073493;28;20064;-71
2021/03/31 05:35:46;;;;;;;44.80;27.40;;;13.40;99.90;;;13.82;56.18;102089.47;5072962;28;20044;-70
2021/03/31 05:38:14;;;;;;;52.45;30.50;;;13.50;99.90;;;14.00;55.48;102094.84;5073220;28;20037;-71
2021/03/31 05:40:43;;;;;;;30.13;19.27;;;13.60;99.90;;;14.10;58.23;102101.06;5073506;28;20052;-71
2021/03/31 05:43:10;;;;;;;28.33;19.40;;;13.60;99.90;;;14.28;57.14;102102.00;5073327;28;20062;-71
2021/03/31 05:45:40;;;;;;;30.58;18.85;;;13.80;99.90;;;14.22;57.47;102093.97;5073547;28;20047;-71
2021/03/31 05:48:09;;;;;;;30.13;19.45;;;13.80;99.90;;;14.08;58.88;102098.41;5073173;28;20421;-71
2021/03/31 05:50:37;;;;;;;33.33;19.45;;;13.70;99.90;;;13.92;60.14;102090.38;5088569;28;20045;-71
2021/03/31 05:53:05;;;;;;;38.90;23.33;;;13.60;99.90;;;13.99;58.91;102089.50;5071711;28;20040;-71
2021/03/31 05:55:33;;;;;;;38.20;23.88;;;13.50;99.90;;;14.10;59.66;102095.72;5072791;28;20063;-71
2021/03/31 05:58:03;;;;;;;39.70;26.08;;;13.60;99.90;;;14.15;58.61;102093.97;5072932;28;20079;-71
2021/03/31 06:00:32;;;;;;;63.60;35.60;;;13.60;99.90;;;14.20;52.98;102093.09;5072617;28;20051;-71
2021/03/31 06:03:03;;;;;;;59.25;35.40;;;13.70;99.90;;;14.37;52.48;102086.00;5072868;28;20043;-71
2021/03/31 06:05:32;;;;;;;50.88;30.45;;;13.80;99.90;;;14.50;53.40;102062.91;5072825;28;20402;-71
2021/03/31 06:08:19;;;;;;;48.22;27.70;;;14.10;99.90;;;14.41;54.59;102010.59;5073047;28;20075;-71
2021/03/31 06:10:47;;;;;;;40.10;26.25;;;14.30;99.90;;;15.11;55.68;102099.19;5072821;28;20132;-72
2021/03/31 06:13:15;;;;;;;40.17;24.02;;;14.60;99.90;;;15.24;57.24;102100.94;5071494;28;20049;-71
2021/03/31 06:15:45;;;;;;;38.85;25.05;;;14.70;99.90;;;15.41;56.12;102091.97;5072292;28;20052;-71
2021/03/31 06:18:16;;;;;;;42.58;23.98;;;14.80;99.90;;;15.57;56.64;102101.69;5072850;28;20055;-71
2021/03/31 06:20:54;;;;;;;51.97;25.75;;;15.00;99.90;;;15.70;56.16;102095.41;5071546;28;20056;-71
2021/03/31 06:23:48;;;;;;;40.95;25.92;;;15.20;99.90;;;15.83;54.16;102097.97;5072551;28;20115;-72
2021/03/31 06:26:23;;;;;;;51.25;29.40;;;15.30;99.90;;;15.97;52.63;102098.78;5072448;28;20037;-71
2021/03/31 06:29:00;;;;;;;47.65;29.63;;;15.50;99.90;;;16.27;50.74;102103.00;5072546;28;20050;-71
2021/03/31 06:31:39;;;;;;;63.72;33.72;;;15.70;99.90;;;16.53;49.13;102106.38;5072694;28;20501;-71
2021/03/31 06:34:09;;;;;;;53.25;30.60;;;16.00;99.90;;;16.84;50.64;102109.66;5071192;28;20051;-71
2021/03/31 06:36:41;;;;;;;45.80;27.45;;;16.30;99.90;;;17.13;52.95;102110.19;5072262;28;20044;-71
2021/03/31 06:39:24;;;;;;;45.78;27.98;;;16.60;99.90;;;17.36;52.14;102115.28;5072480;28;20119;-71
2021/03/31 06:41:58;;;;;;;50.08;28.67;;;16.80;99.90;;;17.63;50.30;102106.94;5072316;28;20044;-71
2021/03/31 06:44:50;;;;;;;49.00;30.85;;;17.10;99.90;;;17.42;48.83;102062.59;5072562;28;20481;-71
2021/03/31 06:47:22;;;;;;;65.28;35.88;;;17.20;99.90;;;17.89;46.21;102108.34;5073895;28;20048;-71
2021/03/31 06:49:50;;;;;;;51.75;31.95;;;17.40;99.90;;;18.13;48.01;102104.41;5075231;28;20461;-71
2021/03/31 06:52:18;;;;;;;59.08;34.35;;;17.60;99.90;;;18.38;43.75;102092.41;5092046;28;20098;-71
2021/03/31 06:54:48;;;;;;;64.55;36.05;;;17.90;99.90;;;18.85;43.40;102103.16;5076363;28;20043;-71
2021/03/31 06:57:24;;;;;;;63.63;35.67;;;18.30;99.90;;;18.87;41.23;102103.16;5076500;28;20131;-71
2021/03/31 07:00:08;;;;;;;63.08;36.90;;;18.50;99.90;;;18.53;41.60;102097.53;5076286;28;20067;-71
2021/03/31 07:02:37;;;;;;;64.65;36.58;;;18.20;99.90;;;18.18;42.30;102091.81;5076420;28;20040;-71
2021/03/31 07:05:07;;;;;;;62.78;36.78;;;17.80;99.90;;;17.88;42.54;102097.66;5076321;28;20048;-71
2021/03/31 07:07:37;;;;;;;59.03;35.33;;;17.50;99.90;;;17.65;42.78;102089.09;5076224;28;20033;-71
2021/03/31 07:10:09;;;;;;;60.43;36.37;;;17.20;99.90;;;17.71;43.06;102097.88;5076030;28;20509;-71
2021/03/31 07:12:41;;;;;;;63.63;37.67;;;17.20;99.90;;;18.22;42.64;102100.69;5076616;28;20045;-72
2021/03/31 07:15:12;;;;;;;63.05;36.92;;;17.60;99.90;;;18.60;41.54;102115.25;5075772;28;20063;-71
2021/03/31 07:17:42;;;;;;;;;;;18.00;99.90;;;18.78;41.73;102101.53;5076116;28;20040;-71
2021/03/31 07:20:11;;;;;;;64.82;37.33;;;18.30;99.90;;;18.75;42.84;102109.66;5075932;28;19927;-71
2021/03/31 07:22:39;;;;;;;62.17;36.75;;;18.30;99.90;;;18.66;44.24;102108.94;5075708;28;20048;-69
2021/03/31 07:25:09;;;;;;;62.00;35.70;;;18.20;99.90;;;18.77;43.79;102102.47;5076031;28;20044;-69
2021/03/31 07:27:37;;;;;;;;;;;18.20;99.90;;;18.74;46.01;102105.19;5076242;28;20049;-69
2021/03/31 07:30:10;;;;;;;63.47;37.33;;;18.30;99.90;;;18.58;43.93;102101.00;5075645;28;19920;-69
2021/03/31 07:32:46;;;;;;;67.72;36.92;;;18.20;99.90;;;18.13;43.65;102100.84;5075535;28;20129;-75
2021/03/31 07:35:14;;;;;;;59.67;37.88;;;17.70;99.90;;;17.96;43.88;102093.09;5075539;28;20036;-70
2021/03/31 07:37:44;;;;;;;67.45;36.33;;;17.50;99.90;;;18.03;45.53;102098.31;5075398;28;20554;-72
2021/03/31 07:40:15;;;;;;;529.92;323.00;;;17.50;99.90;;;17.95;45.41;102010.97;5075714;28;20045;-67
2021/03/31 07:42:50;;;;;;;104.93;67.05;;;17.90;99.90;;;18.72;43.77;102103.44;5075659;28;20045;-67
2021/03/31 07:45:19;;;;;;;192.05;130.02;;;18.20;99.90;;;19.15;44.38;102114.22;5075243;28;20127;-66
2021/03/31 07:47:48;;;;;;;64.22;38.63;;;18.60;99.90;;;19.60;43.39;102111.53;5075516;28;20048;-70
2021/03/31 07:50:17;;;;;;;59.97;37.70;;;19.10;99.90;;;19.87;42.24;102117.19;5075246;28;20159;-69
2021/03/31 07:52:51;;;;;;;63.08;37.13;;;19.50;99.90;;;20.29;41.91;102111.72;5075059;28;20397;-74
2021/03/31 07:55:38;;;;;;;62.20;38.30;;;19.80;99.90;;;20.42;41.64;102113.19;5075002;28;20040;-68
2021/03/31 07:58:26;;;;;;;63.30;37.45;;;20.10;99.90;;;20.56;42.63;102118.22;5074668;28;20131;-69
2021/03/31 08:01:06;;;;;;;71.55;39.30;;;20.10;99.90;;;20.89;42.17;102113.75;5075077;28;20037;-70
2021/03/31 08:03:36;;;;;;;;;;;20.40;99.90;;;20.88;41.65;102090.47;5075574;28;20102;-70
2021/03/31 08:06:10;;;;;;;58.38;37.97;;;20.60;99.90;;;21.13;41.96;102099.66;5075117;28;19920;-70
2021/03/31 08:08:55;;;;;;;59.20;38.80;;;20.80;99.90;;;21.49;41.67;102117.44;5074814;28;20051;-70
2021/03/31 08:11:50;;;;;;;73.78;39.92;;;21.00;99.90;;;21.65;42.00;102115.19;5075204;28;20052;-70
2021/03/31 08:14:35;;;;;;;62.78;37.85;;;21.20;99.90;;;21.71;42.14;102113.19;5074923;28;20045;-70
2021/03/31 08:17:08;;;;;;;61.90;39.60;;;21.30;99.90;;;21.73;42.56;102116.72;5074610;28;20118;-70
2021/03/31 08:19:40;;;;;;;55.20;37.40;;;21.30;99.90;;;21.87;41.92;102102.84;5074749;28;20047;-70
2021/03/31 08:22:33;;;;;;;65.03;38.45;;;21.50;99.90;;;21.83;42.23;102102.06;5074790;28;20275;-70
2021/03/31 08:25:17;;;;;;;65.75;39.08;;;21.30;99.90;;;21.84;41.68;102109.22;5074496;28;20051;-70
2021/03/31 08:28:00;;;;;;;56.95;38.90;;;21.40;99.90;;;22.03;42.07;102106.81;5074754;28;20047;-70
2021/03/31 08:30:29;;;;;;;64.65;39.83;;;21.50;99.90;;;22.31;41.41;102108.59;5074426;28;20082;-71
2021/03/31 08:32:57;;;;;;;60.85;39.35;;;21.80;99.90;;;22.45;41.53;102114.38;5073038;28;20037;-69
2021/03/31 08:35:27;;;;;;;68.50;39.22;;;22.00;99.90;;;22.29;42.12;102113.16;5074420;28;20048;-70
2021/03/31 08:37:55;;;;;;;;;;;21.90;99.90;;;22.13;41.96;102057.97;5074751;28;20036;-69
2021/03/31 08:40:23;;;;;;;64.63;40.25;;;22.10;99.90;;;22.78;40.34;102116.91;5074257;28;20289;-70
2021/03/31 08:43:03;;;;;;;67.38;39.53;;;22.30;99.90;;;23.21;40.69;102115.31;5074293;28;20068;-70
2021/03/31 08:45:36;;;;;;;65.25;39.38;;;22.80;99.90;;;23.52;40.29;102109.66;5074273;28;20048;-70
2021/03/31 08:48:07;;;;;;;60.55;40.08;;;23.20;99.90;;;23.49;39.86;102108.91;5074157;28;20064;-70
2021/03/31 08:50:40;;;;;;;59.85;38.40;;;23.20;99.90;;;23.59;38.84;102088.72;5074522;28;20094;-74
2021/03/31 08:53:11;;;;;;;64.75;40.85;;;23.30;99.90;;;24.08;37.45;102107.47;5074159;28;20040;-73
2021/03/31 08:55:40;;;;;;;;;;;23.70;99.90;;;24.47;37.60;102099.53;5073719;28;20068;-72
2021/03/31 08:58:11;;;;;;;120.55;87.15;;;24.20;99.90;;;25.02;37.17;102105.25;5074148;28;19972;-72
2021/03/31 09:00:47;;;;;;;169.75;120.13;;;24.70;99.90;;;25.47;35.84;102102.31;5073993;28;20389;-70
2021/03/31 09:03:14;;;;;;;55.67;38.83;;;25.20;99.90;;;25.78;33.96;102091.75;5073692;28;20131;-72
2021/03/31 09:06:00;;;;;;;52.70;38.83;;;25.60;99.90;;;26.13;32.54;102113.63;5073716;28;20387;-71
2021/03/31 09:08:29;;;;;;;55.35;37.80;;;25.80;99.90;;;26.15;30.95;102109.88;5073898;28;20474;-71
2021/03/31 09:11:01;;;;;;;50.53;37.30;;;26.00;99.90;;;26.32;32.31;102103.63;5072767;28;20367;-69
2021/03/31 09:13:33;;;;;;;53.03;38.20;;;26.10;99.90;;;26.73;31.66;102118.72;5073694;28;20485;-72
2021/03/31 09:16:04;;;;;;;49.70;36.53;;;26.40;99.90;;;26.97;32.00;102117.44;5073399;28;20064;-67
2021/03/31 09:18:31;;;;;;;55.10;37.65;;;26.70;99.90;;;27.18;31.83;102113.56;5073336;28;20048;-68
2021/03/31 09:21:00;;;;;;;53.63;38.70;;;26.90;99.90;;;27.18;32.24;102119.00;5073479;28;20118;-68
2021/03/31 09:23:27;;;;;;;51.42;37.58;;;26.90;99.90;;;27.41;32.04;102112.38;5072010;28;20528;-67
2021/03/31 09:25:57;;;;;;;49.85;38.13;;;27.10;99.90;;;27.25;32.01;102108.69;5073367;28;20048;-67
2021/03/31 09:28:25;;;;;;;48.70;37.20;;;27.00;99.90;;;27.57;31.61;102111.44;5073622;28;20047;-67
2021/03/31 09:30:56;;;;;;;49.10;37.58;;;27.20;99.90;;;27.61;31.31;102112.16;5072310;28;20118;-67
2021/03/31 09:33:27;;;;;;;53.78;38.42;;;27.30;99.90;;;27.83;31.12;102114.53;5072026;28;20052;-67
2021/03/31 09:36:16;;;;;;;54.40;38.80;;;27.50;99.90;;;28.03;31.08;102117.91;5073123;28;20101;-67
2021/03/31 09:38:55;;;;;;;50.60;37.78;;;27.70;99.90;;;28.25;29.35;102115.72;5073342;28;20063;-67
2021/03/31 09:41:25;;;;;;;51.00;37.53;;;27.90;99.90;;;28.35;28.84;102106.06;5073118;28;20032;-66
2021/03/31 09:43:53;;;;;;;56.85;39.22;;;28.00;98.30;;;28.54;29.22;102111.31;5073235;28;20028;-67
2021/03/31 09:46:25;;;;;;;48.63;38.75;;;28.20;99.30;;;28.68;29.50;102115.94;5073097;28;20053;-66
2021/03/31 09:48:53;;;;;;;57.97;40.03;;;28.30;99.90;;;28.51;28.87;102116.94;5073168;28;20040;-66
2021/03/31 09:51:23;;;;;;;54.60;39.75;;;28.20;98.10;;;28.54;29.49;102116.78;5073458;28;20049;-67
2021/03/31 09:53:51;;;;;;;56.38;37.97;;;28.30;99.90;;;28.60;28.49;102119.13;5073124;28;20066;-66
2021/03/31 09:56:19;;;;;;;51.42;37.30;;;28.20;97.20;;;28.76;28.86;102111.81;5072913;28;20044;-67
2021/03/31 09:58:49;;;;;;;53.33;37.55;;;28.30;98.60;;;28.89;29.32;102112.81;5072518;28;20051;-66
2021/03/31 10:01:17;;;;;;;56.10;40.78;;;28.50;99.80;;;28.83;29.43;102115.00;5072842;28;20124;-65
2021/03/31 10:03:46;;;;;;;57.30;41.65;;;28.50;99.30;;;28.43;29.80;102097.44;5073050;28;20044;-65
2021/03/31 10:06:21;;;;;;;56.47;39.67;;;28.20;99.90;;;28.53;29.98;102104.09;5072835;28;20106;-64
2021/03/31 10:08:50;;;;;;;56.45;38.80;;;28.20;99.90;;;28.65;29.93;102100.66;5072572;28;20516;-64
2021/03/31 10:11:36;;;;;;;58.58;39.88;;;28.30;99.90;;;28.96;29.81;102095.09;5072436;28;20123;-64
2021/03/31 10:14:05;;;;;;;59.80;40.50;;;28.50;99.90;;;28.46;29.75;102008.25;5088282;28;20536;-64
2021/03/31 10:16:36;;;;;;;242.25;190.50;;;28.70;99.90;;;29.07;29.39;102098.06;5072520;28;20053;-65
2021/03/31 10:19:04;;;;;;;;;;;28.70;99.40;;;29.21;29.34;102097.22;5072967;28;20054;-65